sensor_id;sensor_type;location;lat;lon;timestamp;P1;durP1;ratioP1;P2;durP2;ratioP2
73283;SDS011;61519;60.050;18.582;2022-12-07T00:00:57;3.78;;;1.95;;
73283;SDS011;61519;60.050;18.582;2022-12-07T00:03:32;4.32;;;1.65;;
73283;SDS011;61519;60.050;18.582;2022-12-07T00:05:59;4.70;;;2.10;;
73283;SDS011;61519;60.050;18.582;2022-12-07T00:08:28;3.40;;;1.80;;
73283;SDS011;61519;60.050;18.582;2022-12-07T00:10:58;4.47;;;1.95;;
73283;SDS011;61519;60.050;18.582;2022-12-07T00:13:31;4.33;;;2.10;;
73283;SDS011;61519;60.050;18.582;2022-12-07T00:16:24;4.05;;;1.75;;
73283;SDS011;61519;60.050;18.582;2022-12-07T00:19:05;3.83;;;1.67;;
73283;SDS011;61519;60.050;18.582;2022-12-07T00:24:24;5.88;;;2.15;;
73283;SDS011;61519;60.050;18.582;2022-12-07T00:27:17;3.97;;;1.95;;
73283;SDS011;61519;60.050;18.582;2022-12-07T00:30:18;5.70;;;2.45;;
73283;SDS011;61519;60.050;18.582;2022-12-07T00:32:46;10.20;;;2.60;;
73283;SDS011;61519;60.050;18.582;2022-12-07T00:35:15;5.63;;;2.05;;
73283;SDS011;61519;60.050;18.582;2022-12-07T00:38:13;4.55;;;2.40;;
73283;SDS011;61519;60.050;18.582;2022-12-07T00:41:47;7.43;;;2.15;;
73283;SDS011;61519;60.050;18.582;2022-12-07T00:44:06;5.63;;;2.22;;
73283;SDS011;61519;60.050;18.582;2022-12-07T00:46:31;3.43;;;1.70;;
73283;SDS011;61519;60.050;18.582;2022-12-07T00:52:26;3.47;;;1.77;;
73283;SDS011;61519;60.050;18.582;2022-12-07T00:55:16;6.85;;;2.35;;
73283;SDS011;61519;60.050;18.582;2022-12-07T00:58:36;3.85;;;1.88;;
73283;SDS011;61519;60.050;18.582;2022-12-07T01:01:14;5.40;;;2.40;;
73283;SDS011;61519;60.050;18.582;2022-12-07T01:03:39;6.10;;;1.65;;
73283;SDS011;61519;60.050;18.582;2022-12-07T01:06:13;4.13;;;1.83;;
73283;SDS011;61519;60.050;18.582;2022-12-07T01:08:44;5.73;;;1.90;;
73283;SDS011;61519;60.050;18.582;2022-12-07T01:11:14;5.22;;;1.85;;
73283;SDS011;61519;60.050;18.582;2022-12-07T01:13:41;6.13;;;2.22;;
73283;SDS011;61519;60.050;18.582;2022-12-07T01:16:19;5.20;;;2.28;;
73283;SDS011;61519;60.050;18.582;2022-12-07T01:19:06;7.53;;;2.17;;
73283;SDS011;61519;60.050;18.582;2022-12-07T01:21:43;10.82;;;2.03;;
73283;SDS011;61519;60.050;18.582;2022-12-07T01:24:47;5.93;;;1.52;;
73283;SDS011;61519;60.050;18.582;2022-12-07T01:27:25;12.97;;;2.20;;
73283;SDS011;61519;60.050;18.582;2022-12-07T01:30:04;6.75;;;2.10;;
73283;SDS011;61519;60.050;18.582;2022-12-07T01:32:39;5.35;;;2.28;;
73283;SDS011;61519;60.050;18.582;2022-12-07T01:35:30;6.03;;;1.93;;
73283;SDS011;61519;60.050;18.582;2022-12-07T01:38:24;5.38;;;2.00;;
73283;SDS011;61519;60.050;18.582;2022-12-07T01:41:01;7.38;;;2.28;;
73283;SDS011;61519;60.050;18.582;2022-12-07T01:44:20;5.85;;;2.40;;
73283;SDS011;61519;60.050;18.582;2022-12-07T01:46:37;5.70;;;2.10;;
73283;SDS011;61519;60.050;18.582;2022-12-07T01:52:25;5.25;;;1.17;;
73283;SDS011;61519;60.050;18.582;2022-12-07T01:55:10;6.33;;;2.60;;
73283;SDS011;61519;60.050;18.582;2022-12-07T01:58:00;7.25;;;2.90;;
73283;SDS011;61519;60.050;18.582;2022-12-07T02:00:29;5.63;;;1.95;;
73283;SDS011;61519;60.050;18.582;2022-12-07T05:03:32;10.97;;;3.23;;
73283;SDS011;61519;60.050;18.582;2022-12-07T05:06:56;5.85;;;2.65;;
73283;SDS011;61519;60.050;18.582;2022-12-07T05:09:27;5.28;;;3.00;;
73283;SDS011;61519;60.050;18.582;2022-12-07T05:12:04;4.15;;;2.70;;
73283;SDS011;61519;60.050;18.582;2022-12-07T05:14:35;4.40;;;2.20;;
73283;SDS011;61519;60.050;18.582;2022-12-07T05:17:06;3.87;;;2.20;;
73283;SDS011;61519;60.050;18.582;2022-12-07T05:19:35;6.50;;;2.30;;
73283;SDS011;61519;60.050;18.582;2022-12-07T05:22:01;6.03;;;3.28;;
73283;SDS011;61519;60.050;18.582;2022-12-07T05:24:26;9.60;;;3.27;;
73283;SDS011;61519;60.050;18.582;2022-12-07T05:30:08;9.20;;;2.80;;
73283;SDS011;61519;60.050;18.582;2022-12-07T05:33:23;8.77;;;2.42;;
73283;SDS011;61519;60.050;18.582;2022-12-07T05:35:36;4.68;;;2.70;;
73283;SDS011;61519;60.050;18.582;2022-12-07T05:39:14;10.73;;;2.95;;
73283;SDS011;61519;60.050;18.582;2022-12-07T05:41:48;11.27;;;2.50;;
73283;SDS011;61519;60.050;18.582;2022-12-07T05:45:25;7.35;;;2.55;;
73283;SDS011;61519;60.050;18.582;2022-12-07T05:48:21;8.80;;;2.78;;
73283;SDS011;61519;60.050;18.582;2022-12-07T05:54:45;9.43;;;2.13;;
73283;SDS011;61519;60.050;18.582;2022-12-07T05:57:13;17.15;;;2.20;;
73283;SDS011;61519;60.050;18.582;2022-12-07T05:59:39;15.43;;;2.23;;
73283;SDS011;61519;60.050;18.582;2022-12-07T06:04:51;3.92;;;1.48;;
73283;SDS011;61519;60.050;18.582;2022-12-07T06:07:16;5.13;;;2.33;;
73283;SDS011;61519;60.050;18.582;2022-12-07T06:09:42;9.30;;;2.30;;
73283;SDS011;61519;60.050;18.582;2022-12-07T06:12:09;5.07;;;2.17;;
73283;SDS011;61519;60.050;18.582;2022-12-07T06:14:54;4.93;;;1.93;;
73283;SDS011;61519;60.050;18.582;2022-12-07T06:17:19;4.57;;;1.80;;
73283;SDS011;61519;60.050;18.582;2022-12-07T06:19:45;4.77;;;2.13;;
73283;SDS011;61519;60.050;18.582;2022-12-07T06:22:10;10.47;;;3.97;;
73283;SDS011;61519;60.050;18.582;2022-12-07T06:24:36;8.85;;;4.40;;
73283;SDS011;61519;60.050;18.582;2022-12-07T06:27:02;5.60;;;3.63;;
73283;SDS011;61519;60.050;18.582;2022-12-07T06:29:28;4.10;;;2.20;;
73283;SDS011;61519;60.050;18.582;2022-12-07T06:31:53;3.47;;;2.10;;
73283;SDS011;61519;60.050;18.582;2022-12-07T06:34:19;5.20;;;2.27;;
73283;SDS011;61519;60.050;18.582;2022-12-07T06:36:47;4.05;;;2.05;;
73283;SDS011;61519;60.050;18.582;2022-12-07T06:39:16;15.10;;;1.53;;
73283;SDS011;61519;60.050;18.582;2022-12-07T06:41:43;8.27;;;2.58;;
73283;SDS011;61519;60.050;18.582;2022-12-07T06:44:08;4.37;;;2.13;;
73283;SDS011;61519;60.050;18.582;2022-12-07T06:46:34;10.13;;;2.60;;
73283;SDS011;61519;60.050;18.582;2022-12-07T06:49:00;7.07;;;2.30;;
73283;SDS011;61519;60.050;18.582;2022-12-07T06:51:26;5.07;;;3.10;;
73283;SDS011;61519;60.050;18.582;2022-12-07T06:53:54;7.60;;;2.95;;
73283;SDS011;61519;60.050;18.582;2022-12-07T06:56:26;4.70;;;2.70;;
73283;SDS011;61519;60.050;18.582;2022-12-07T06:58:52;3.97;;;2.13;;
73283;SDS011;61519;60.050;18.582;2022-12-07T07:01:21;4.55;;;2.38;;
73283;SDS011;61519;60.050;18.582;2022-12-07T07:03:55;9.70;;;2.40;;
73283;SDS011;61519;60.050;18.582;2022-12-07T07:06:21;6.10;;;2.40;;
73283;SDS011;61519;60.050;18.582;2022-12-07T07:08:49;14.60;;;2.50;;
73283;SDS011;61519;60.050;18.582;2022-12-07T07:11:15;8.75;;;2.70;;
73283;SDS011;61519;60.050;18.582;2022-12-07T07:13:40;5.90;;;2.20;;
73283;SDS011;61519;60.050;18.582;2022-12-07T07:16:06;10.30;;;2.05;;
73283;SDS011;61519;60.050;18.582;2022-12-07T07:18:33;4.97;;;2.20;;
73283;SDS011;61519;60.050;18.582;2022-12-07T07:20:58;10.38;;;2.95;;
73283;SDS011;61519;60.050;18.582;2022-12-07T07:23:24;8.47;;;5.10;;
73283;SDS011;61519;60.050;18.582;2022-12-07T07:25:50;7.95;;;4.18;;
73283;SDS011;61519;60.050;18.582;2022-12-07T07:28:15;8.67;;;3.93;;
73283;SDS011;61519;60.050;18.582;2022-12-07T07:30:41;4.70;;;2.90;;
73283;SDS011;61519;60.050;18.582;2022-12-07T07:33:07;6.40;;;2.47;;
73283;SDS011;61519;60.050;18.582;2022-12-07T07:35:34;5.53;;;2.13;;
73283;SDS011;61519;60.050;18.582;2022-12-07T07:38:00;7.82;;;2.60;;
73283;SDS011;61519;60.050;18.582;2022-12-07T07:40:26;8.27;;;2.60;;
73283;SDS011;61519;60.050;18.582;2022-12-07T07:42:57;5.35;;;2.35;;
73283;SDS011;61519;60.050;18.582;2022-12-07T07:45:24;5.40;;;2.30;;
73283;SDS011;61519;60.050;18.582;2022-12-07T07:47:50;8.50;;;2.17;;
73283;SDS011;61519;60.050;18.582;2022-12-07T07:50:16;5.40;;;2.60;;
73283;SDS011;61519;60.050;18.582;2022-12-07T07:52:41;5.90;;;3.40;;
73283;SDS011;61519;60.050;18.582;2022-12-07T07:55:07;4.90;;;2.17;;
73283;SDS011;61519;60.050;18.582;2022-12-07T07:57:33;6.63;;;2.80;;
73283;SDS011;61519;60.050;18.582;2022-12-07T08:00:12;4.20;;;2.50;;
73283;SDS011;61519;60.050;18.582;2022-12-07T14:07:47;6.30;;;2.33;;
73283;SDS011;61519;60.050;18.582;2022-12-07T14:12:57;3.28;;;1.73;;
73283;SDS011;61519;60.050;18.582;2022-12-07T14:15:27;3.05;;;1.45;;
73283;SDS011;61519;60.050;18.582;2022-12-07T14:17:54;3.97;;;1.73;;
73283;SDS011;61519;60.050;18.582;2022-12-07T14:23:00;7.88;;;2.58;;
73283;SDS011;61519;60.050;18.582;2022-12-07T14:25:43;37.67;;;3.15;;
73283;SDS011;61519;60.050;18.582;2022-12-07T14:28:23;3.93;;;1.90;;
73283;SDS011;61519;60.050;18.582;2022-12-07T14:30:50;13.55;;;2.13;;
73283;SDS011;61519;60.050;18.582;2022-12-07T14:33:15;4.10;;;2.10;;
73283;SDS011;61519;60.050;18.582;2022-12-07T14:35:41;6.40;;;2.00;;
73283;SDS011;61519;60.050;18.582;2022-12-07T14:38:07;7.80;;;1.73;;
73283;SDS011;61519;60.050;18.582;2022-12-07T14:40:32;11.45;;;1.85;;
73283;SDS011;61519;60.050;18.582;2022-12-07T14:45:49;6.25;;;2.10;;
73283;SDS011;61519;60.050;18.582;2022-12-07T14:48:15;4.73;;;1.90;;
73283;SDS011;61519;60.050;18.582;2022-12-07T14:50:42;3.57;;;2.07;;
73283;SDS011;61519;60.050;18.582;2022-12-07T14:53:13;4.75;;;2.00;;
73283;SDS011;61519;60.050;18.582;2022-12-07T14:55:40;8.65;;;1.77;;
73283;SDS011;61519;60.050;18.582;2022-12-07T14:58:06;5.20;;;1.80;;
73283;SDS011;61519;60.050;18.582;2022-12-07T15:00:38;3.05;;;1.50;;
73283;SDS011;61519;60.050;18.582;2022-12-07T15:03:03;9.67;;;3.93;;
73283;SDS011;61519;60.050;18.582;2022-12-07T15:05:29;6.80;;;3.43;;
73283;SDS011;61519;60.050;18.582;2022-12-07T15:07:54;4.43;;;2.63;;
73283;SDS011;61519;60.050;18.582;2022-12-07T15:10:24;6.73;;;3.77;;
73283;SDS011;61519;60.050;18.582;2022-12-07T15:12:54;5.55;;;2.55;;
73283;SDS011;61519;60.050;18.582;2022-12-07T15:15:40;5.90;;;3.22;;
73283;SDS011;61519;60.050;18.582;2022-12-07T15:18:06;3.90;;;2.00;;
73283;SDS011;61519;60.050;18.582;2022-12-07T15:20:31;6.03;;;3.93;;
73283;SDS011;61519;60.050;18.582;2022-12-07T15:22:56;8.07;;;4.50;;
73283;SDS011;61519;60.050;18.582;2022-12-07T15:25:22;14.73;;;9.90;;
73283;SDS011;61519;60.050;18.582;2022-12-07T15:27:47;6.27;;;2.73;;
73283;SDS011;61519;60.050;18.582;2022-12-07T15:30:12;13.65;;;2.38;;
73283;SDS011;61519;60.050;18.582;2022-12-07T15:32:38;4.83;;;2.50;;
73283;SDS011;61519;60.050;18.582;2022-12-07T15:35:03;5.17;;;3.43;;
73283;SDS011;61519;60.050;18.582;2022-12-07T15:37:29;5.00;;;2.67;;
73283;SDS011;61519;60.050;18.582;2022-12-07T15:39:54;6.93;;;2.78;;
73283;SDS011;61519;60.050;18.582;2022-12-07T15:42:20;5.05;;;2.65;;
73283;SDS011;61519;60.050;18.582;2022-12-07T15:44:45;8.30;;;2.07;;
73283;SDS011;61519;60.050;18.582;2022-12-07T15:47:29;6.30;;;1.60;;
73283;SDS011;61519;60.050;18.582;2022-12-07T15:49:55;7.28;;;2.03;;
73283;SDS011;61519;60.050;18.582;2022-12-07T15:52:21;4.53;;;2.90;;
73283;SDS011;61519;60.050;18.582;2022-12-07T15:54:46;6.93;;;3.33;;
73283;SDS011;61519;60.050;18.582;2022-12-07T15:57:12;5.53;;;3.05;;
73283;SDS011;61519;60.050;18.582;2022-12-07T15:59:38;6.63;;;2.70;;
73283;SDS011;61519;60.050;18.582;2022-12-07T16:02:03;5.63;;;2.27;;
73283;SDS011;61519;60.050;18.582;2022-12-07T16:04:29;4.90;;;2.67;;
73283;SDS011;61519;60.050;18.582;2022-12-07T16:06:54;6.80;;;2.23;;
73283;SDS011;61519;60.050;18.582;2022-12-07T16:09:20;3.25;;;1.75;;
73283;SDS011;61519;60.050;18.582;2022-12-07T16:11:46;4.87;;;2.80;;
73283;SDS011;61519;60.050;18.582;2022-12-07T16:14:11;6.85;;;3.78;;
73283;SDS011;61519;60.050;18.582;2022-12-07T16:16:37;10.57;;;5.00;;
73283;SDS011;61519;60.050;18.582;2022-12-07T16:19:05;7.47;;;4.70;;
73283;SDS011;61519;60.050;18.582;2022-12-07T16:21:30;11.80;;;7.57;;
73283;SDS011;61519;60.050;18.582;2022-12-07T16:24:02;4.33;;;2.40;;
73283;SDS011;61519;60.050;18.582;2022-12-07T16:26:28;6.38;;;4.00;;
73283;SDS011;61519;60.050;18.582;2022-12-07T16:28:53;7.03;;;2.63;;
73283;SDS011;61519;60.050;18.582;2022-12-07T16:31:21;13.98;;;2.53;;
73283;SDS011;61519;60.050;18.582;2022-12-07T16:33:48;4.40;;;2.30;;
73283;SDS011;61519;60.050;18.582;2022-12-07T16:36:14;4.00;;;1.83;;
73283;SDS011;61519;60.050;18.582;2022-12-07T16:38:41;4.20;;;2.10;;
73283;SDS011;61519;60.050;18.582;2022-12-07T16:41:07;7.18;;;2.97;;
73283;SDS011;61519;60.050;18.582;2022-12-07T16:43:36;3.73;;;2.20;;
73283;SDS011;61519;60.050;18.582;2022-12-07T16:46:02;8.73;;;2.67;;
73283;SDS011;61519;60.050;18.582;2022-12-07T16:48:28;11.20;;;5.83;;
73283;SDS011;61519;60.050;18.582;2022-12-07T16:50:54;8.50;;;4.03;;
73283;SDS011;61519;60.050;18.582;2022-12-07T16:53:20;8.20;;;4.27;;
73283;SDS011;61519;60.050;18.582;2022-12-07T16:55:46;10.60;;;5.13;;
73283;SDS011;61519;60.050;18.582;2022-12-07T16:58:12;8.13;;;4.20;;
73283;SDS011;61519;60.050;18.582;2022-12-07T17:00:39;6.80;;;3.92;;
73283;SDS011;61519;60.050;18.582;2022-12-07T17:05:30;6.87;;;2.53;;
73283;SDS011;61519;60.050;18.582;2022-12-07T17:07:56;7.60;;;3.33;;
73283;SDS011;61519;60.050;18.582;2022-12-07T17:10:22;8.73;;;4.65;;
73283;SDS011;61519;60.050;18.582;2022-12-07T17:12:49;5.03;;;2.53;;
73283;SDS011;61519;60.050;18.582;2022-12-07T17:15:17;4.35;;;2.28;;
73283;SDS011;61519;60.050;18.582;2022-12-07T17:17:50;8.20;;;2.47;;
73283;SDS011;61519;60.050;18.582;2022-12-07T17:20:18;11.73;;;3.50;;
73283;SDS011;61519;60.050;18.582;2022-12-07T17:22:44;9.60;;;4.07;;
73283;SDS011;61519;60.050;18.582;2022-12-07T17:25:09;3.97;;;1.70;;
73283;SDS011;61519;60.050;18.582;2022-12-07T17:27:35;5.78;;;2.22;;
73283;SDS011;61519;60.050;18.582;2022-12-07T17:30:02;4.97;;;2.97;;
73283;SDS011;61519;60.050;18.582;2022-12-07T17:32:33;5.50;;;2.90;;
73283;SDS011;61519;60.050;18.582;2022-12-07T17:34:59;4.93;;;3.03;;
73283;SDS011;61519;60.050;18.582;2022-12-07T17:37:25;4.68;;;2.60;;
73283;SDS011;61519;60.050;18.582;2022-12-07T17:39:51;5.60;;;2.22;;
73283;SDS011;61519;60.050;18.582;2022-12-07T17:42:18;8.57;;;2.10;;
73283;SDS011;61519;60.050;18.582;2022-12-07T17:45:07;4.20;;;1.70;;
73283;SDS011;61519;60.050;18.582;2022-12-07T17:47:34;6.80;;;2.00;;
73283;SDS011;61519;60.050;18.582;2022-12-07T17:50:01;6.10;;;1.77;;
73283;SDS011;61519;60.050;18.582;2022-12-07T17:52:28;3.67;;;2.10;;
73283;SDS011;61519;60.050;18.582;2022-12-07T17:55:18;9.23;;;2.45;;
73283;SDS011;61519;60.050;18.582;2022-12-07T17:57:43;5.53;;;2.83;;
73283;SDS011;61519;60.050;18.582;2022-12-07T18:00:09;3.83;;;2.43;;
73283;SDS011;61519;60.050;18.582;2022-12-07T18:02:36;7.50;;;2.58;;
73283;SDS011;61519;60.050;18.582;2022-12-07T18:05:02;4.40;;;2.37;;
73283;SDS011;61519;60.050;18.582;2022-12-07T18:07:27;4.03;;;2.10;;
73283;SDS011;61519;60.050;18.582;2022-12-07T18:09:53;5.63;;;3.03;;
73283;SDS011;61519;60.050;18.582;2022-12-07T18:12:19;7.35;;;3.92;;
73283;SDS011;61519;60.050;18.582;2022-12-07T18:14:47;9.77;;;3.47;;
73283;SDS011;61519;60.050;18.582;2022-12-07T18:17:14;8.95;;;4.70;;
73283;SDS011;61519;60.050;18.582;2022-12-07T18:19:40;21.15;;;9.90;;
73283;SDS011;61519;60.050;18.582;2022-12-07T18:22:06;8.47;;;5.27;;
73283;SDS011;61519;60.050;18.582;2022-12-07T18:24:35;5.63;;;3.58;;
73283;SDS011;61519;60.050;18.582;2022-12-07T18:27:02;5.37;;;3.40;;
73283;SDS011;61519;60.050;18.582;2022-12-07T18:29:28;8.63;;;4.20;;
73283;SDS011;61519;60.050;18.582;2022-12-07T18:31:53;16.87;;;6.87;;
73283;SDS011;61519;60.050;18.582;2022-12-07T18:34:19;17.17;;;7.27;;
73283;SDS011;61519;60.050;18.582;2022-12-07T18:36:47;7.28;;;3.65;;
73283;SDS011;61519;60.050;18.582;2022-12-07T18:39:17;6.83;;;2.20;;
73283;SDS011;61519;60.050;18.582;2022-12-07T18:41:43;4.63;;;2.75;;
73283;SDS011;61519;60.050;18.582;2022-12-07T18:44:09;5.67;;;3.30;;
73283;SDS011;61519;60.050;18.582;2022-12-07T18:46:35;4.88;;;3.08;;
73283;SDS011;61519;60.050;18.582;2022-12-07T18:49:00;4.23;;;2.77;;
73283;SDS011;61519;60.050;18.582;2022-12-07T18:51:27;5.88;;;2.90;;
73283;SDS011;61519;60.050;18.582;2022-12-07T18:53:56;7.05;;;3.42;;
73283;SDS011;61519;60.050;18.582;2022-12-07T18:56:23;8.40;;;3.88;;
73283;SDS011;61519;60.050;18.582;2022-12-07T18:58:50;8.80;;;4.78;;
73283;SDS011;61519;60.050;18.582;2022-12-07T19:01:35;6.68;;;4.20;;
73283;SDS011;61519;60.050;18.582;2022-12-07T19:04:09;7.55;;;2.95;;
73283;SDS011;61519;60.050;18.582;2022-12-07T19:07:10;8.40;;;3.03;;
73283;SDS011;61519;60.050;18.582;2022-12-07T19:10:22;4.57;;;2.38;;
73283;SDS011;61519;60.050;18.582;2022-12-07T19:12:48;4.82;;;2.45;;
73283;SDS011;61519;60.050;18.582;2022-12-07T19:15:14;4.30;;;2.37;;
73283;SDS011;61519;60.050;18.582;2022-12-07T19:17:48;4.30;;;2.33;;
73283;SDS011;61519;60.050;18.582;2022-12-07T19:20:20;4.38;;;2.45;;
73283;SDS011;61519;60.050;18.582;2022-12-07T19:22:58;4.00;;;2.13;;
73283;SDS011;61519;60.050;18.582;2022-12-07T19:31:48;5.55;;;3.05;;
73283;SDS011;61519;60.050;18.582;2022-12-07T19:34:34;7.85;;;3.83;;
73283;SDS011;61519;60.050;18.582;2022-12-07T19:37:06;5.55;;;3.30;;
73283;SDS011;61519;60.050;18.582;2022-12-07T19:39:35;6.75;;;4.60;;
73283;SDS011;61519;60.050;18.582;2022-12-07T19:42:00;8.83;;;4.80;;
73283;SDS011;61519;60.050;18.582;2022-12-07T19:44:32;10.80;;;6.10;;
73283;SDS011;61519;60.050;18.582;2022-12-07T19:47:09;7.43;;;4.50;;
73283;SDS011;61519;60.050;18.582;2022-12-07T19:49:43;6.13;;;2.00;;
73283;SDS011;61519;60.050;18.582;2022-12-07T19:52:13;4.72;;;2.47;;
73283;SDS011;61519;60.050;18.582;2022-12-07T19:57:36;5.20;;;3.33;;
73283;SDS011;61519;60.050;18.582;2022-12-07T20:00:04;5.90;;;2.47;;
73283;SDS011;61519;60.050;18.582;2022-12-07T20:02:44;5.68;;;3.33;;
73283;SDS011;61519;60.050;18.582;2022-12-07T20:05:41;9.05;;;4.93;;
73283;SDS011;61519;60.050;18.582;2022-12-07T20:08:10;11.35;;;6.13;;
73283;SDS011;61519;60.050;18.582;2022-12-07T20:11:17;12.15;;;8.60;;
73283;SDS011;61519;60.050;18.582;2022-12-07T20:17:59;17.40;;;12.17;;
73283;SDS011;61519;60.050;18.582;2022-12-07T20:23:34;5.20;;;2.50;;
73283;SDS011;61519;60.050;18.582;2022-12-07T20:26:10;11.67;;;2.00;;
73283;SDS011;61519;60.050;18.582;2022-12-07T20:31:34;5.45;;;1.98;;
73283;SDS011;61519;60.050;18.582;2022-12-07T20:34:00;4.50;;;2.05;;
73283;SDS011;61519;60.050;18.582;2022-12-07T20:36:26;9.40;;;4.55;;
73283;SDS011;61519;60.050;18.582;2022-12-07T20:38:52;15.88;;;7.88;;
73283;SDS011;61519;60.050;18.582;2022-12-07T20:41:26;46.63;;;27.90;;
73283;SDS011;61519;60.050;18.582;2022-12-07T20:44:23;43.53;;;30.75;;
73283;SDS011;61519;60.050;18.582;2022-12-07T20:47:00;16.57;;;11.83;;
73283;SDS011;61519;60.050;18.582;2022-12-07T20:49:33;7.93;;;5.40;;
73283;SDS011;61519;60.050;18.582;2022-12-07T20:52:07;8.05;;;3.08;;
73283;SDS011;61519;60.050;18.582;2022-12-07T20:54:36;4.93;;;2.20;;
73283;SDS011;61519;60.050;18.582;2022-12-07T20:57:01;5.40;;;3.33;;
73283;SDS011;61519;60.050;18.582;2022-12-07T20:59:30;5.67;;;3.33;;
73283;SDS011;61519;60.050;18.582;2022-12-07T21:01:55;8.77;;;5.47;;
73283;SDS011;61519;60.050;18.582;2022-12-07T21:04:21;5.50;;;3.17;;
73283;SDS011;61519;60.050;18.582;2022-12-07T21:06:46;8.38;;;3.53;;
73283;SDS011;61519;60.050;18.582;2022-12-07T21:09:12;7.68;;;3.55;;
73283;SDS011;61519;60.050;18.582;2022-12-07T21:11:37;7.57;;;4.70;;
73283;SDS011;61519;60.050;18.582;2022-12-07T21:14:03;9.00;;;4.43;;
73283;SDS011;61519;60.050;18.582;2022-12-07T21:16:29;10.73;;;4.45;;
73283;SDS011;61519;60.050;18.582;2022-12-07T21:18:56;42.67;;;12.18;;
73283;SDS011;61519;60.050;18.582;2022-12-07T21:21:24;19.00;;;7.77;;
73283;SDS011;61519;60.050;18.582;2022-12-07T21:23:50;10.70;;;4.10;;
73283;SDS011;61519;60.050;18.582;2022-12-07T21:26:18;19.77;;;7.50;;
73283;SDS011;61519;60.050;18.582;2022-12-07T21:28:45;64.80;;;18.92;;
73283;SDS011;61519;60.050;18.582;2022-12-07T21:31:11;27.10;;;10.48;;
73283;SDS011;61519;60.050;18.582;2022-12-07T21:33:36;47.27;;;14.83;;
73283;SDS011;61519;60.050;18.582;2022-12-07T21:36:04;32.95;;;11.85;;
73283;SDS011;61519;60.050;18.582;2022-12-07T21:38:30;10.03;;;3.47;;
73283;SDS011;61519;60.050;18.582;2022-12-07T21:40:56;30.60;;;11.95;;
73283;SDS011;61519;60.050;18.582;2022-12-07T21:43:22;17.10;;;5.60;;
73283;SDS011;61519;60.050;18.582;2022-12-07T21:45:51;9.40;;;3.85;;
73283;SDS011;61519;60.050;18.582;2022-12-07T21:48:17;5.53;;;2.88;;
73283;SDS011;61519;60.050;18.582;2022-12-07T21:50:42;10.73;;;3.53;;
73283;SDS011;61519;60.050;18.582;2022-12-07T21:53:08;5.80;;;2.50;;
73283;SDS011;61519;60.050;18.582;2022-12-07T21:55:33;8.93;;;3.90;;
73283;SDS011;61519;60.050;18.582;2022-12-07T21:57:59;7.70;;;3.73;;
73283;SDS011;61519;60.050;18.582;2022-12-07T22:00:24;9.88;;;4.40;;
73283;SDS011;61519;60.050;18.582;2022-12-07T22:02:52;56.60;;;21.87;;
73283;SDS011;61519;60.050;18.582;2022-12-07T22:05:17;37.90;;;20.42;;
73283;SDS011;61519;60.050;18.582;2022-12-07T22:07:43;13.13;;;6.23;;
73283;SDS011;61519;60.050;18.582;2022-12-07T22:10:15;40.47;;;16.92;;
73283;SDS011;61519;60.050;18.582;2022-12-07T22:12:56;51.60;;;21.45;;
73283;SDS011;61519;60.050;18.582;2022-12-07T22:15:22;17.23;;;7.37;;
73283;SDS011;61519;60.050;18.582;2022-12-07T22:17:54;8.63;;;4.18;;
73283;SDS011;61519;60.050;18.582;2022-12-07T22:20:21;6.45;;;2.95;;
73283;SDS011;61519;60.050;18.582;2022-12-07T22:22:46;14.80;;;7.30;;
73283;SDS011;61519;60.050;18.582;2022-12-07T22:25:12;10.73;;;4.75;;
73283;SDS011;61519;60.050;18.582;2022-12-07T22:27:47;14.37;;;5.90;;
73283;SDS011;61519;60.050;18.582;2022-12-07T22:30:16;54.38;;;21.92;;
73283;SDS011;61519;60.050;18.582;2022-12-07T22:32:41;27.83;;;12.30;;
73283;SDS011;61519;60.050;18.582;2022-12-07T22:35:07;22.53;;;10.07;;
73283;SDS011;61519;60.050;18.582;2022-12-07T22:37:32;59.58;;;26.00;;
73283;SDS011;61519;60.050;18.582;2022-12-07T22:39:58;24.20;;;11.60;;
73283;SDS011;61519;60.050;18.582;2022-12-07T22:42:23;48.87;;;17.70;;
73283;SDS011;61519;60.050;18.582;2022-12-07T22:44:55;33.40;;;12.95;;
73283;SDS011;61519;60.050;18.582;2022-12-07T22:47:20;22.67;;;12.05;;
73283;SDS011;61519;60.050;18.582;2022-12-07T22:49:46;7.68;;;3.75;;
73283;SDS011;61519;60.050;18.582;2022-12-07T22:52:11;6.90;;;3.20;;
73283;SDS011;61519;60.050;18.582;2022-12-07T22:54:37;6.00;;;2.50;;
73283;SDS011;61519;60.050;18.582;2022-12-07T22:57:02;5.67;;;2.70;;
73283;SDS011;61519;60.050;18.582;2022-12-07T22:59:28;7.25;;;3.13;;
73283;SDS011;61519;60.050;18.582;2022-12-07T23:01:53;6.63;;;2.72;;
73283;SDS011;61519;60.050;18.582;2022-12-07T23:04:18;7.37;;;3.00;;
73283;SDS011;61519;60.050;18.582;2022-12-07T23:06:44;5.63;;;2.40;;
73283;SDS011;61519;60.050;18.582;2022-12-07T23:09:10;6.83;;;3.13;;
73283;SDS011;61519;60.050;18.582;2022-12-07T23:11:37;6.22;;;2.80;;
73283;SDS011;61519;60.050;18.582;2022-12-07T23:14:25;7.03;;;3.73;;
73283;SDS011;61519;60.050;18.582;2022-12-07T23:16:51;8.52;;;3.75;;
73283;SDS011;61519;60.050;18.582;2022-12-07T23:19:16;24.03;;;13.70;;
73283;SDS011;61519;60.050;18.582;2022-12-07T23:21:42;15.98;;;8.70;;
73283;SDS011;61519;60.050;18.582;2022-12-07T23:24:08;6.85;;;4.60;;
73283;SDS011;61519;60.050;18.582;2022-12-07T23:26:35;6.45;;;3.72;;
73283;SDS011;61519;60.050;18.582;2022-12-07T23:29:00;8.73;;;3.30;;
73283;SDS011;61519;60.050;18.582;2022-12-07T23:31:26;4.97;;;3.00;;
73283;SDS011;61519;60.050;18.582;2022-12-07T23:33:51;6.37;;;2.73;;
73283;SDS011;61519;60.050;18.582;2022-12-07T23:36:18;5.93;;;3.25;;
73283;SDS011;61519;60.050;18.582;2022-12-07T23:38:48;5.68;;;3.10;;
73283;SDS011;61519;60.050;18.582;2022-12-07T23:41:21;5.40;;;2.70;;
73283;SDS011;61519;60.050;18.582;2022-12-07T23:43:55;7.85;;;3.42;;
73283;SDS011;61519;60.050;18.582;2022-12-07T23:46:23;7.30;;;3.03;;
73283;SDS011;61519;60.050;18.582;2022-12-07T23:48:52;6.95;;;2.80;;
73283;SDS011;61519;60.050;18.582;2022-12-07T23:51:18;7.63;;;2.65;;
73283;SDS011;61519;60.050;18.582;2022-12-07T23:53:47;6.17;;;3.00;;
73283;SDS011;61519;60.050;18.582;2022-12-07T23:56:16;6.25;;;2.58;;
73283;SDS011;61519;60.050;18.582;2022-12-07T23:58:47;6.70;;;2.72;;
